createdAt,value
2017-01-17T00:01:00.386Z,0
2017-01-17T00:02:09.362Z,0
2017-01-17T00:03:18.341Z,0
2017-01-17T00:04:27.326Z,0
2017-01-17T00:05:36.306Z,0
2017-01-17T00:06:45.655Z,0
2017-01-17T00:07:54.636Z,0
2017-01-17T00:09:03.615Z,0
2017-01-17T00:10:12.604Z,0
2017-01-17T00:11:21.610Z,0
2017-01-17T00:12:30.647Z,0
2017-01-17T00:13:39.629Z,0
2017-01-17T00:14:48.610Z,0
2017-01-17T00:15:58.401Z,0
2017-01-17T00:17:08.395Z,0
2017-01-17T00:18:17.428Z,0
2017-01-17T00:19:26.884Z,0
2017-01-17T00:20:36.353Z,0
2017-01-17T00:21:45.332Z,0
2017-01-17T00:22:54.311Z,0
2017-01-17T00:24:04.043Z,0
2017-01-17T00:25:14.070Z,0
2017-01-17T00:26:23.049Z,0
2017-01-17T00:27:33.795Z,0
2017-01-17T00:28:42.777Z,0
2017-01-17T00:29:55.723Z,0
2017-01-17T00:31:05.563Z,0
2017-01-17T00:32:16.642Z,0
2017-01-17T00:33:27.970Z,0
2017-01-17T00:34:42.243Z,0
2017-01-17T00:35:53.836Z,0
2017-01-17T00:37:05.687Z,0
2017-01-17T00:38:16.324Z,0
2017-01-17T00:39:27.616Z,0
2017-01-17T00:40:39.723Z,0
2017-01-17T00:41:50.626Z,0
2017-01-17T00:43:01.942Z,0
2017-01-17T00:44:10.924Z,0
2017-01-17T00:45:24.227Z,0
2017-01-17T00:46:35.426Z,0
2017-01-17T00:47:44.430Z,0
2017-01-17T00:48:53.411Z,0
2017-01-17T00:50:02.392Z,0
2017-01-17T00:51:11.374Z,0
2017-01-17T00:52:20.355Z,0
2017-01-17T00:53:29.336Z,0
2017-01-17T00:54:38.319Z,0
2017-01-17T00:55:47.300Z,0
2017-01-17T00:56:56.282Z,0
2017-01-17T00:58:05.261Z,0
2017-01-17T00:59:14.246Z,0
2017-01-17T01:00:23.230Z,0
2017-01-17T01:01:32.213Z,0
2017-01-17T01:02:41.191Z,0
2017-01-17T01:03:50.169Z,0
2017-01-17T01:04:59.146Z,0
2017-01-17T01:06:08.127Z,0
2017-01-17T01:07:17.106Z,0
2017-01-17T01:08:26.089Z,0
2017-01-17T01:09:35.126Z,0
2017-01-17T01:10:44.115Z,0
2017-01-17T01:11:53.098Z,0
2017-01-17T01:13:02.082Z,0
2017-01-17T01:14:11.061Z,0
2017-01-17T01:15:20.036Z,0
2017-01-17T01:16:29.013Z,0
2017-01-17T01:17:37.994Z,0
2017-01-17T01:18:46.976Z,0
2017-01-17T01:19:55.957Z,0
2017-01-17T01:21:04.945Z,0
2017-01-17T01:22:13.935Z,0
2017-01-17T01:23:22.912Z,0
2017-01-17T01:24:31.890Z,0
2017-01-17T01:25:40.868Z,0
2017-01-17T01:26:49.850Z,0
2017-01-17T01:27:58.826Z,0
2017-01-17T01:29:07.808Z,0
2017-01-17T01:30:16.791Z,0
2017-01-17T01:31:25.770Z,0
2017-01-17T01:32:34.758Z,0
2017-01-17T01:33:44.157Z,0
2017-01-17T01:34:53.132Z,0
2017-01-17T01:36:02.116Z,0
2017-01-17T01:37:11.100Z,0
2017-01-17T01:38:20.083Z,0
2017-01-17T01:39:29.065Z,0
2017-01-17T01:40:38.047Z,0
2017-01-17T01:41:47.023Z,0
2017-01-17T01:42:56.006Z,0
2017-01-17T01:44:05.006Z,0
2017-01-17T01:45:13.984Z,0
2017-01-17T01:46:22.993Z,0
2017-01-17T01:47:31.971Z,0
2017-01-17T01:48:40.950Z,0
2017-01-17T01:49:49.930Z,0
2017-01-17T01:50:58.908Z,0
2017-01-17T01:52:07.889Z,0
2017-01-17T01:53:16.872Z,0
2017-01-17T01:54:25.858Z,0
2017-01-17T01:55:34.840Z,0
2017-01-17T01:56:43.818Z,0
2017-01-17T01:57:52.801Z,0
2017-01-17T01:59:01.782Z,0
2017-01-17T02:00:10.765Z,0
2017-01-17T02:01:19.746Z,0
2017-01-17T02:02:29.305Z,0
2017-01-17T02:03:38.280Z,0
2017-01-17T02:04:47.258Z,0
2017-01-17T02:05:56.240Z,0
2017-01-17T02:07:05.217Z,0
2017-01-17T02:08:14.192Z,0
2017-01-17T02:09:23.175Z,0
2017-01-17T02:10:32.154Z,0
2017-01-17T02:11:41.139Z,0
2017-01-17T02:12:50.118Z,0
2017-01-17T02:13:59.101Z,0
2017-01-17T02:15:08.079Z,0
2017-01-17T02:16:17.070Z,0
2017-01-17T02:17:26.052Z,0
2017-01-17T02:18:35.030Z,0
2017-01-17T02:19:44.017Z,0
2017-01-17T02:20:53.000Z,0
2017-01-17T02:22:01.979Z,0
2017-01-17T02:23:10.961Z,0
2017-01-17T02:24:19.946Z,0
2017-01-17T02:25:28.924Z,0
2017-01-17T02:26:37.907Z,0
2017-01-17T02:27:46.886Z,0
2017-01-17T02:28:55.873Z,0
2017-01-17T02:30:04.859Z,0
2017-01-17T02:31:13.837Z,0
2017-01-17T02:32:22.822Z,0
2017-01-17T02:33:31.803Z,0
2017-01-17T02:34:40.784Z,0
2017-01-17T02:35:49.765Z,0
2017-01-17T02:36:58.746Z,0
2017-01-17T02:38:07.733Z,0
2017-01-17T02:39:16.722Z,0
2017-01-17T02:40:25.701Z,0
2017-01-17T02:41:34.680Z,0
2017-01-17T02:42:43.661Z,0
2017-01-17T02:43:52.637Z,0
2017-01-17T02:45:01.618Z,0
2017-01-17T02:46:10.595Z,0
2017-01-17T02:47:19.572Z,0
2017-01-17T02:48:28.549Z,0
2017-01-17T02:49:37.530Z,0
2017-01-17T02:50:46.510Z,0
2017-01-17T02:51:55.490Z,0
2017-01-17T02:53:04.915Z,0
2017-01-17T02:54:13.901Z,0
2017-01-17T02:55:22.885Z,0
2017-01-17T02:56:31.859Z,0
2017-01-17T02:57:40.845Z,0
2017-01-17T02:58:49.831Z,0
2017-01-17T02:59:58.811Z,0
2017-01-17T03:01:07.792Z,0
2017-01-17T03:02:16.774Z,0
2017-01-17T03:03:25.755Z,0
2017-01-17T03:04:34.734Z,0
2017-01-17T03:05:43.713Z,0
2017-01-17T03:06:52.694Z,0
2017-01-17T03:08:01.675Z,0
2017-01-17T03:09:10.660Z,0
2017-01-17T03:10:19.641Z,0
2017-01-17T03:11:28.628Z,0
2017-01-17T03:12:37.605Z,0
2017-01-17T03:13:46.620Z,0
2017-01-17T03:14:55.598Z,0
2017-01-17T03:16:04.594Z,0
2017-01-17T03:17:13.578Z,0
2017-01-17T03:18:22.561Z,0
2017-01-17T03:19:31.547Z,0
2017-01-17T03:20:40.530Z,0
2017-01-17T03:21:49.508Z,0
2017-01-17T03:22:58.491Z,0
2017-01-17T03:24:07.470Z,0
2017-01-17T03:25:16.451Z,0
2017-01-17T03:26:25.428Z,0
2017-01-17T03:27:34.405Z,0
2017-01-17T03:28:43.388Z,0
2017-01-17T03:29:52.364Z,0
2017-01-17T03:31:01.346Z,0
2017-01-17T03:32:10.327Z,0
2017-01-17T03:33:19.309Z,0
2017-01-17T03:34:28.297Z,0
2017-01-17T03:35:37.281Z,0
2017-01-17T03:36:46.262Z,0
2017-01-17T03:37:55.242Z,0
2017-01-17T03:39:04.223Z,0
2017-01-17T03:40:13.213Z,0
2017-01-17T03:41:22.197Z,0
2017-01-17T03:42:31.210Z,0
2017-01-17T03:43:40.191Z,0
2017-01-17T03:44:49.169Z,0
2017-01-17T03:45:58.151Z,0
2017-01-17T03:47:07.135Z,0
2017-01-17T03:48:16.116Z,0
2017-01-17T03:49:25.095Z,0
2017-01-17T03:50:34.078Z,0
2017-01-17T03:51:43.059Z,0
2017-01-17T03:52:52.042Z,0
2017-01-17T03:54:01.020Z,0
2017-01-17T03:55:10.006Z,0
2017-01-17T03:56:18.984Z,0
2017-01-17T03:57:27.967Z,0
2017-01-17T03:58:36.949Z,0
2017-01-17T03:59:45.932Z,0
2017-01-17T04:00:54.914Z,0
2017-01-17T04:02:03.898Z,0
2017-01-17T04:03:12.879Z,0
2017-01-17T04:04:21.863Z,0
2017-01-17T04:05:30.843Z,0
2017-01-17T04:06:39.822Z,0
2017-01-17T04:07:48.798Z,0
2017-01-17T04:08:57.806Z,0
2017-01-17T04:10:06.785Z,0
2017-01-17T04:11:15.766Z,0
2017-01-17T04:12:24.747Z,0
2017-01-17T04:13:33.724Z,0
2017-01-17T04:14:42.710Z,0
2017-01-17T04:15:51.694Z,0
2017-01-17T04:17:00.673Z,0
2017-01-17T04:18:09.659Z,0
2017-01-17T04:19:18.643Z,0
2017-01-17T04:20:27.628Z,0
2017-01-17T04:21:36.607Z,0
2017-01-17T04:22:45.585Z,0
2017-01-17T04:23:54.567Z,0
2017-01-17T04:25:03.550Z,0
2017-01-17T04:26:12.531Z,0
2017-01-17T04:27:21.537Z,0
2017-01-17T04:28:30.522Z,0
2017-01-17T04:29:39.505Z,0
2017-01-17T04:30:48.505Z,0
2017-01-17T04:31:57.490Z,0
2017-01-17T04:33:06.468Z,0
2017-01-17T04:34:15.445Z,0
2017-01-17T04:35:24.418Z,0
2017-01-17T04:36:33.400Z,0
2017-01-17T04:37:42.378Z,0
2017-01-17T04:38:51.361Z,0
2017-01-17T04:40:00.339Z,0
2017-01-17T04:41:09.319Z,0
2017-01-17T04:42:18.299Z,0
2017-01-17T04:43:27.278Z,0
2017-01-17T04:44:36.255Z,0
2017-01-17T04:45:45.229Z,0
2017-01-17T04:46:54.203Z,0
2017-01-17T04:48:03.181Z,0
2017-01-17T04:49:12.158Z,0
2017-01-17T04:50:21.135Z,0
2017-01-17T04:51:30.110Z,0
2017-01-17T04:52:39.093Z,0
2017-01-17T04:53:48.078Z,0
2017-01-17T04:54:57.059Z,0
2017-01-17T04:56:06.051Z,0
2017-01-17T04:57:15.031Z,0
2017-01-17T04:58:24.012Z,0
2017-01-17T04:59:32.995Z,0
2017-01-17T05:00:41.971Z,0
2017-01-17T05:01:50.957Z,0
2017-01-17T05:02:59.937Z,0
2017-01-17T05:04:08.920Z,0
2017-01-17T05:05:17.915Z,0
2017-01-17T05:06:26.901Z,0
2017-01-17T05:07:35.889Z,0
2017-01-17T05:08:44.871Z,0
2017-01-17T05:09:53.848Z,0
2017-01-17T05:11:02.841Z,0
2017-01-17T05:12:11.826Z,0
2017-01-17T05:13:20.803Z,0
2017-01-17T05:14:29.793Z,0
2017-01-17T05:15:38.768Z,0
2017-01-17T05:16:47.742Z,0
2017-01-17T05:17:56.718Z,0
2017-01-17T05:19:05.702Z,0
2017-01-17T05:20:14.678Z,0
2017-01-17T05:21:23.657Z,0
2017-01-17T05:22:32.638Z,0
2017-01-17T05:23:41.619Z,0
2017-01-17T05:24:50.600Z,0
2017-01-17T05:25:59.575Z,0
2017-01-17T05:27:08.556Z,0
2017-01-17T05:28:17.540Z,0
2017-01-17T05:29:26.519Z,0
2017-01-17T05:30:35.510Z,0
2017-01-17T05:31:44.500Z,0
2017-01-17T05:32:53.471Z,0
2017-01-17T05:34:02.445Z,0
2017-01-17T05:35:11.427Z,0
2017-01-17T05:36:20.402Z,0
2017-01-17T05:37:29.391Z,0
2017-01-17T05:38:38.380Z,0
2017-01-17T05:39:47.363Z,0
2017-01-17T05:40:56.344Z,0
2017-01-17T05:42:05.337Z,0
2017-01-17T05:43:14.335Z,0
2017-01-17T05:44:23.313Z,0
2017-01-17T05:45:32.289Z,0
2017-01-17T05:46:41.268Z,0
2017-01-17T05:47:50.250Z,0
2017-01-17T05:48:59.224Z,0
2017-01-17T05:50:08.199Z,0
2017-01-17T05:51:17.176Z,0
2017-01-17T05:52:26.152Z,0
2017-01-17T05:53:35.133Z,0
2017-01-17T05:54:44.139Z,0
2017-01-17T05:55:53.149Z,0
2017-01-17T05:57:02.123Z,0
2017-01-17T05:58:11.098Z,0
2017-01-17T05:59:20.081Z,0
2017-01-17T06:00:29.062Z,0
2017-01-17T06:01:38.041Z,0
2017-01-17T06:02:47.018Z,0
2017-01-17T06:03:56.007Z,0
2017-01-17T06:05:05.002Z,0
2017-01-17T06:06:13.979Z,0
2017-01-17T06:07:22.958Z,0
2017-01-17T06:08:31.940Z,0
2017-01-17T06:09:40.923Z,0
2017-01-17T06:10:49.910Z,0
2017-01-17T06:11:58.896Z,0
2017-01-17T06:13:07.882Z,0
2017-01-17T06:14:16.866Z,0
2017-01-17T06:15:25.842Z,0
2017-01-17T06:16:34.817Z,0
2017-01-17T06:17:43.827Z,0
2017-01-17T06:18:52.810Z,0
2017-01-17T06:20:01.787Z,0
2017-01-17T06:21:10.774Z,0
2017-01-17T06:22:19.755Z,0
2017-01-17T06:23:28.742Z,0
2017-01-17T06:24:37.725Z,0
2017-01-17T06:25:46.702Z,0
2017-01-17T06:26:55.682Z,0
2017-01-17T06:28:04.671Z,0
2017-01-17T06:29:14.065Z,0
2017-01-17T06:30:23.073Z,0
2017-01-17T06:31:32.082Z,0
2017-01-17T06:32:41.063Z,0
2017-01-17T06:33:50.045Z,0
2017-01-17T06:34:59.035Z,0
2017-01-17T06:36:08.019Z,0
2017-01-17T06:37:16.996Z,0
2017-01-17T06:38:26.002Z,0
2017-01-17T06:39:34.982Z,0
2017-01-17T06:40:43.965Z,0
2017-01-17T06:41:52.949Z,0
2017-01-17T06:43:01.923Z,0
2017-01-17T06:44:10.908Z,0
2017-01-17T06:45:19.879Z,0
2017-01-17T06:46:28.858Z,0
2017-01-17T06:47:37.841Z,0
2017-01-17T06:48:46.815Z,0
2017-01-17T06:49:55.805Z,0
2017-01-17T06:51:04.785Z,0
2017-01-17T06:52:13.778Z,0
2017-01-17T06:53:22.755Z,0
2017-01-17T06:54:31.733Z,0
2017-01-17T06:55:40.715Z,0
2017-01-17T06:56:49.691Z,0
2017-01-17T06:57:58.678Z,0
2017-01-17T06:59:07.678Z,0
2017-01-17T07:00:16.674Z,0
2017-01-17T07:01:25.652Z,0
2017-01-17T07:02:34.631Z,0
2017-01-17T07:03:43.613Z,0
2017-01-17T07:04:52.595Z,0
2017-01-17T07:06:01.576Z,0
2017-01-17T07:07:10.577Z,0
2017-01-17T07:08:19.559Z,0
2017-01-17T07:09:28.543Z,0
2017-01-17T07:10:37.524Z,0
2017-01-17T07:11:46.506Z,0
2017-01-17T07:12:55.492Z,0
2017-01-17T07:14:04.476Z,5
2017-01-17T07:15:13.452Z,5
2017-01-17T07:16:22.434Z,5
2017-01-17T07:17:31.411Z,5
2017-01-17T07:18:40.392Z,5
2017-01-17T07:19:49.377Z,5
2017-01-17T07:20:58.358Z,5
2017-01-17T07:22:07.339Z,5
2017-01-17T07:23:16.321Z,5
2017-01-17T07:24:25.321Z,5
2017-01-17T07:25:34.298Z,5
2017-01-17T07:26:43.277Z,5
2017-01-17T07:27:52.256Z,5
2017-01-17T07:29:01.237Z,10
2017-01-17T07:30:10.230Z,10
2017-01-17T07:31:19.541Z,10
2017-01-17T07:32:28.559Z,10
2017-01-17T07:33:37.535Z,10
2017-01-17T07:34:46.517Z,10
2017-01-17T07:35:55.504Z,10
2017-01-17T07:37:04.500Z,10
2017-01-17T07:38:13.486Z,10
2017-01-17T07:39:22.459Z,10
2017-01-17T07:40:31.729Z,10
2017-01-17T07:41:41.153Z,10
2017-01-17T07:42:50.135Z,15
2017-01-17T07:43:59.115Z,15
2017-01-17T07:45:08.100Z,15
2017-01-17T07:46:17.220Z,15
2017-01-17T07:47:26.209Z,15
2017-01-17T07:48:35.225Z,15
2017-01-17T07:49:44.204Z,15
2017-01-17T07:50:53.193Z,15
2017-01-17T07:52:02.176Z,15
2017-01-17T07:53:11.166Z,15
2017-01-17T07:54:20.140Z,15
2017-01-17T07:55:29.137Z,15
2017-01-17T07:56:38.117Z,20
2017-01-17T07:57:47.103Z,20
2017-01-17T07:58:56.117Z,20
2017-01-17T08:00:05.093Z,20
2017-01-17T08:01:16.625Z,20
2017-01-17T08:02:26.991Z,20
2017-01-17T08:03:37.012Z,20
2017-01-17T08:04:46.573Z,20
2017-01-17T08:05:55.579Z,20
2017-01-17T08:07:04.867Z,20
2017-01-17T08:08:14.030Z,20
2017-01-17T08:09:23.013Z,20
2017-01-17T08:10:32.197Z,20
2017-01-17T08:11:41.891Z,20
2017-01-17T08:12:51.718Z,20
2017-01-17T08:14:01.527Z,25
2017-01-17T08:15:11.696Z,25
2017-01-17T08:16:21.520Z,25
2017-01-17T08:17:31.703Z,25
2017-01-17T08:18:41.813Z,25
2017-01-17T08:19:52.106Z,25
2017-01-17T08:21:02.665Z,25
2017-01-17T08:22:11.650Z,25
2017-01-17T08:23:21.719Z,25
2017-01-17T08:24:30.918Z,25
2017-01-17T08:25:39.899Z,25
2017-01-17T08:26:49.080Z,25
2017-01-17T08:27:58.060Z,30
2017-01-17T08:29:07.711Z,30
2017-01-17T08:30:16.697Z,30
2017-01-17T08:31:28.905Z,30
2017-01-17T08:32:38.216Z,30
2017-01-17T08:33:47.376Z,30
2017-01-17T08:34:56.673Z,30
2017-01-17T08:36:05.888Z,30
2017-01-17T08:37:16.036Z,30
2017-01-17T08:38:25.693Z,30
2017-01-17T08:39:36.881Z,30
2017-01-17T08:40:46.772Z,30
2017-01-17T08:41:56.811Z,30
2017-01-17T08:43:06.411Z,30
2017-01-17T08:44:15.395Z,30
2017-01-17T08:45:25.194Z,30
2017-01-17T08:46:34.456Z,30
2017-01-17T08:47:43.436Z,30
2017-01-17T08:48:53.126Z,35
2017-01-17T08:50:02.891Z,35
2017-01-17T08:51:11.867Z,35
2017-01-17T08:52:21.187Z,35
2017-01-17T08:53:30.436Z,35
2017-01-17T08:54:39.802Z,35
2017-01-17T08:55:48.783Z,35
2017-01-17T08:56:57.765Z,35
2017-01-17T08:58:06.744Z,35
2017-01-17T08:59:15.752Z,35
2017-01-17T09:00:24.731Z,35
2017-01-17T09:01:33.741Z,35
2017-01-17T09:02:42.716Z,35
2017-01-17T09:03:51.698Z,35
2017-01-17T09:05:00.708Z,35
2017-01-17T09:06:09.693Z,35
2017-01-17T09:07:18.679Z,35
2017-01-17T09:08:27.657Z,35
2017-01-17T09:09:36.633Z,35
2017-01-17T09:10:45.615Z,35
2017-01-17T09:11:54.598Z,35
2017-01-17T09:13:03.576Z,35
2017-01-17T09:14:12.567Z,35
2017-01-17T09:15:21.557Z,35
2017-01-17T09:16:30.540Z,35
2017-01-17T09:17:39.521Z,35
2017-01-17T09:18:48.501Z,35
2017-01-17T09:19:57.483Z,40
2017-01-17T09:21:06.461Z,40
2017-01-17T09:22:15.572Z,40
2017-01-17T09:23:24.553Z,40
2017-01-17T09:24:33.530Z,40
2017-01-17T09:25:42.515Z,40
2017-01-17T09:26:51.495Z,40
2017-01-17T09:28:00.475Z,40
2017-01-17T09:29:09.460Z,40
2017-01-17T09:30:18.441Z,40
2017-01-17T09:31:27.425Z,40
2017-01-17T09:32:36.410Z,40
2017-01-17T09:33:45.395Z,40
2017-01-17T09:34:54.517Z,40
2017-01-17T09:36:03.500Z,40
2017-01-17T09:37:12.838Z,40
2017-01-17T09:38:21.818Z,40
2017-01-17T09:39:30.821Z,40
2017-01-17T09:40:40.057Z,40
2017-01-17T09:41:49.040Z,40
2017-01-17T09:42:58.037Z,40
2017-01-17T09:44:07.419Z,40
2017-01-17T09:45:16.416Z,40
2017-01-17T09:46:25.400Z,40
2017-01-17T09:47:34.386Z,40
2017-01-17T09:48:43.369Z,40
2017-01-17T09:49:52.356Z,40
2017-01-17T09:51:01.411Z,40
2017-01-17T09:52:10.407Z,40
2017-01-17T09:53:19.389Z,40
2017-01-17T09:54:28.374Z,40
2017-01-17T09:55:37.355Z,40
2017-01-17T09:56:46.337Z,45
2017-01-17T09:57:55.314Z,45
2017-01-17T09:59:04.298Z,45
2017-01-17T10:00:13.307Z,45
2017-01-17T10:01:22.293Z,45
2017-01-17T10:02:31.424Z,45
2017-01-17T10:03:40.404Z,45
2017-01-17T10:04:49.383Z,45
2017-01-17T10:05:58.364Z,45
2017-01-17T10:07:07.342Z,45
2017-01-17T10:08:16.323Z,45
2017-01-17T10:09:26.556Z,45
2017-01-17T10:10:35.537Z,45
2017-01-17T10:11:44.514Z,45
2017-01-17T10:12:53.493Z,45
2017-01-17T10:14:02.477Z,45
2017-01-17T10:15:11.600Z,45
2017-01-17T10:16:20.578Z,45
2017-01-17T10:17:29.568Z,45
2017-01-17T10:18:38.708Z,45
2017-01-17T10:19:47.689Z,45
2017-01-17T10:20:56.675Z,45
2017-01-17T10:22:05.658Z,45
2017-01-17T10:23:14.881Z,45
2017-01-17T10:24:23.867Z,50
2017-01-17T10:25:33.761Z,50
2017-01-17T10:26:43.617Z,50
2017-01-17T10:27:53.166Z,50
2017-01-17T10:29:02.736Z,50
2017-01-17T10:30:12.421Z,50
2017-01-17T10:31:22.502Z,50
2017-01-17T10:32:35.210Z,50
2017-01-17T10:33:44.948Z,50
2017-01-17T10:34:54.921Z,50
2017-01-17T10:36:04.262Z,50
2017-01-17T10:37:13.973Z,50
2017-01-17T10:38:22.953Z,50
2017-01-17T10:39:32.524Z,50
2017-01-17T10:40:42.216Z,50
2017-01-17T10:41:52.274Z,50
2017-01-17T10:43:02.452Z,50
2017-01-17T10:44:13.570Z,50
2017-01-17T10:45:23.260Z,50
2017-01-17T10:46:32.869Z,50
2017-01-17T10:47:42.367Z,50
2017-01-17T10:48:51.377Z,50
2017-01-17T10:50:00.877Z,50
2017-01-17T10:51:09.857Z,50
2017-01-17T10:52:18.844Z,50
2017-01-17T10:53:27.823Z,50
2017-01-17T10:54:36.804Z,50
2017-01-17T10:55:45.794Z,50
2017-01-17T10:56:54.782Z,50
2017-01-17T10:58:03.761Z,50
2017-01-17T10:59:12.742Z,50
2017-01-17T11:00:21.739Z,50
2017-01-17T11:01:30.752Z,50
2017-01-17T11:02:39.757Z,50
2017-01-17T11:03:48.747Z,50
2017-01-17T11:04:57.728Z,50
2017-01-17T11:06:06.711Z,50
2017-01-17T11:07:15.696Z,50
2017-01-17T11:08:24.675Z,50
2017-01-17T11:09:33.664Z,50
2017-01-17T11:10:42.645Z,50
2017-01-17T11:11:51.627Z,50
2017-01-17T11:13:00.615Z,50
2017-01-17T11:14:09.618Z,50
2017-01-17T11:15:18.604Z,50
2017-01-17T11:16:27.588Z,50
2017-01-17T11:17:36.566Z,50
2017-01-17T11:18:45.781Z,50
2017-01-17T11:19:54.836Z,50
2017-01-17T11:21:03.943Z,50
2017-01-17T11:22:12.928Z,50
2017-01-17T11:23:21.915Z,50
2017-01-17T11:24:30.907Z,50
2017-01-17T11:25:39.889Z,50
2017-01-17T11:26:49.165Z,50
2017-01-17T11:27:58.459Z,50
2017-01-17T11:29:07.445Z,50
2017-01-17T11:30:16.428Z,50
2017-01-17T11:31:25.411Z,50
2017-01-17T11:32:34.396Z,50
2017-01-17T11:33:43.558Z,50
2017-01-17T11:34:52.691Z,50
2017-01-17T11:36:01.871Z,50
2017-01-17T11:37:10.889Z,50
2017-01-17T11:38:19.951Z,50
2017-01-17T11:39:28.935Z,50
2017-01-17T11:40:37.919Z,50
2017-01-17T11:41:46.901Z,50
2017-01-17T11:42:55.885Z,50
2017-01-17T11:44:05.230Z,50
2017-01-17T11:45:14.706Z,50
2017-01-17T11:46:23.689Z,50
2017-01-17T11:47:32.672Z,50
2017-01-17T11:48:42.082Z,50
2017-01-17T11:49:51.697Z,50
2017-01-17T11:51:00.680Z,50
2017-01-17T11:52:09.655Z,50
2017-01-17T11:53:18.661Z,50
2017-01-17T11:54:27.641Z,50
2017-01-17T11:55:36.655Z,50
2017-01-17T11:56:45.633Z,50
2017-01-17T11:57:54.615Z,50
2017-01-17T11:59:03.594Z,50
2017-01-17T12:00:12.580Z,50
2017-01-17T12:01:21.570Z,50
2017-01-17T12:02:30.554Z,50
2017-01-17T12:03:39.536Z,50
2017-01-17T12:04:48.518Z,50
2017-01-17T12:05:57.501Z,50
2017-01-17T12:07:07.164Z,50
2017-01-17T12:08:16.147Z,50
2017-01-17T12:09:25.132Z,50
2017-01-17T12:10:34.300Z,50
2017-01-17T12:11:43.305Z,50
2017-01-17T12:12:52.290Z,50
2017-01-17T12:14:01.414Z,50
2017-01-17T12:15:10.399Z,50
2017-01-17T12:16:19.378Z,50
2017-01-17T12:17:28.367Z,50
2017-01-17T12:18:37.351Z,50
2017-01-17T12:19:46.331Z,50
2017-01-17T12:20:55.313Z,50
2017-01-17T12:22:04.896Z,50
2017-01-17T12:23:13.876Z,50
2017-01-17T12:24:22.862Z,50
2017-01-17T12:25:32.201Z,50
2017-01-17T12:26:41.800Z,50
2017-01-17T12:27:51.028Z,50
2017-01-17T12:29:00.284Z,50
2017-01-17T12:30:11.351Z,50
2017-01-17T12:31:21.767Z,50
2017-01-17T12:32:32.689Z,45
2017-01-17T12:33:41.814Z,45
2017-01-17T12:34:50.817Z,45
2017-01-17T12:36:02.011Z,45
2017-01-17T12:37:12.332Z,45
2017-01-17T12:38:21.315Z,45
2017-01-17T12:39:30.297Z,45
2017-01-17T12:40:39.280Z,45
2017-01-17T12:41:48.257Z,45
2017-01-17T12:42:57.240Z,45
2017-01-17T12:44:06.223Z,45
2017-01-17T12:45:15.204Z,45
2017-01-17T12:46:24.187Z,45
2017-01-17T12:47:33.846Z,45
2017-01-17T12:48:43.755Z,45
2017-01-17T12:49:52.815Z,45
2017-01-17T12:51:02.450Z,45
2017-01-17T12:52:11.657Z,45
2017-01-17T12:53:20.656Z,45
2017-01-17T12:54:30.483Z,45
2017-01-17T12:55:39.750Z,45
2017-01-17T12:56:48.866Z,45
2017-01-17T12:57:59.172Z,45
2017-01-17T12:59:09.124Z,45
2017-01-17T13:00:18.399Z,45
2017-01-17T13:01:27.975Z,45
2017-01-17T13:02:38.267Z,40
2017-01-17T13:03:47.830Z,40
2017-01-17T13:04:57.496Z,40
2017-01-17T13:06:07.282Z,40
2017-01-17T13:07:16.499Z,40
2017-01-17T13:08:26.090Z,40
2017-01-17T13:09:35.404Z,40
2017-01-17T13:10:44.590Z,40
2017-01-17T13:11:53.841Z,40
2017-01-17T13:13:03.063Z,40
2017-01-17T13:14:12.541Z,40
2017-01-17T13:15:21.804Z,40
2017-01-17T13:16:31.389Z,40
2017-01-17T13:17:40.926Z,40
2017-01-17T13:18:50.037Z,40
2017-01-17T13:19:59.140Z,40
2017-01-17T13:21:08.186Z,40
2017-01-17T13:22:17.260Z,40
2017-01-17T13:23:26.401Z,40
2017-01-17T13:24:35.486Z,40
2017-01-17T13:25:44.647Z,40
2017-01-17T13:26:53.731Z,40
2017-01-17T13:28:02.814Z,40
2017-01-17T13:29:11.883Z,35
2017-01-17T13:30:20.988Z,35
2017-01-17T13:31:30.095Z,35
2017-01-17T13:32:39.218Z,35
2017-01-17T13:33:48.304Z,35
2017-01-17T13:34:57.371Z,35
2017-01-17T13:36:06.435Z,35
2017-01-17T13:37:15.465Z,35
2017-01-17T13:38:24.535Z,35
2017-01-17T13:39:33.672Z,35
2017-01-17T13:40:42.727Z,35
2017-01-17T13:41:51.848Z,35
2017-01-17T13:43:00.968Z,35
2017-01-17T13:44:10.116Z,35
2017-01-17T13:45:19.141Z,35
2017-01-17T13:46:28.255Z,35
2017-01-17T13:47:37.384Z,35
2017-01-17T13:48:46.471Z,35
2017-01-17T13:49:55.558Z,35
2017-01-17T13:51:04.713Z,35
2017-01-17T13:52:13.882Z,30
2017-01-17T13:53:22.951Z,30
2017-01-17T13:54:32.062Z,30
2017-01-17T13:55:41.148Z,30
2017-01-17T13:56:50.192Z,30
2017-01-17T13:57:59.299Z,30
2017-01-17T13:59:08.360Z,30
2017-01-17T14:00:17.734Z,30
2017-01-17T14:01:27.098Z,30
2017-01-17T14:02:36.480Z,30
2017-01-17T14:03:45.814Z,30
2017-01-17T14:04:55.259Z,30
2017-01-17T14:06:04.589Z,30
2017-01-17T14:07:14.601Z,30
2017-01-17T14:08:24.171Z,30
2017-01-17T14:09:33.803Z,25
2017-01-17T14:10:43.126Z,25
2017-01-17T14:11:52.546Z,25
2017-01-17T14:13:01.892Z,25
2017-01-17T14:14:11.167Z,25
2017-01-17T14:15:20.720Z,25
2017-01-17T14:16:30.127Z,25
2017-01-17T14:17:39.810Z,25
2017-01-17T14:18:49.456Z,25
2017-01-17T14:19:58.817Z,25
2017-01-17T14:21:09.789Z,25
2017-01-17T14:22:19.298Z,25
2017-01-17T14:23:29.464Z,25
2017-01-17T14:24:39.005Z,25
2017-01-17T14:25:48.469Z,20
2017-01-17T14:26:57.989Z,20
2017-01-17T14:28:07.772Z,20
2017-01-17T14:29:17.263Z,20
2017-01-17T14:30:26.609Z,20
2017-01-17T14:31:36.076Z,20
2017-01-17T14:32:45.537Z,20
2017-01-17T14:33:55.202Z,20
2017-01-17T14:35:05.080Z,20
2017-01-17T14:36:14.542Z,20
2017-01-17T14:37:24.186Z,20
2017-01-17T14:38:33.703Z,20
2017-01-17T14:39:43.535Z,20
2017-01-17T14:40:53.105Z,20
2017-01-17T14:42:02.570Z,15
2017-01-17T14:43:11.952Z,15
2017-01-17T14:44:21.243Z,15
2017-01-17T14:45:30.861Z,15
2017-01-17T14:46:40.456Z,15
2017-01-17T14:47:50.426Z,15
2017-01-17T14:48:59.841Z,15
2017-01-17T14:50:09.407Z,15
2017-01-17T14:51:18.824Z,15
2017-01-17T14:52:28.421Z,15
2017-01-17T14:53:37.721Z,15
2017-01-17T14:54:46.705Z,15
2017-01-17T14:55:55.689Z,10
2017-01-17T14:57:04.672Z,10
2017-01-17T14:58:13.684Z,10
2017-01-17T14:59:22.661Z,10
2017-01-17T15:00:31.646Z,10
2017-01-17T15:01:41.059Z,10
2017-01-17T15:02:50.042Z,10
2017-01-17T15:03:59.030Z,10
2017-01-17T15:05:10.433Z,10
2017-01-17T15:06:20.156Z,10
2017-01-17T15:07:29.139Z,10
2017-01-17T15:08:42.162Z,10
2017-01-17T15:09:57.425Z,5
2017-01-17T15:11:06.778Z,5
2017-01-17T15:12:15.785Z,5
2017-01-17T15:13:24.773Z,5
2017-01-17T15:14:34.697Z,5
2017-01-17T15:15:44.060Z,5
2017-01-17T15:16:53.556Z,5
2017-01-17T15:18:02.927Z,5
2017-01-17T15:19:11.936Z,5
2017-01-17T15:20:20.930Z,5
2017-01-17T15:21:29.916Z,5
2017-01-17T15:22:38.900Z,0
2017-01-17T15:23:47.898Z,0
2017-01-17T15:24:56.892Z,0
2017-01-17T15:26:05.882Z,0
2017-01-17T15:27:14.904Z,0
2017-01-17T15:28:23.890Z,0
2017-01-17T15:29:32.871Z,0
2017-01-17T15:30:41.855Z,0
2017-01-17T15:31:50.831Z,0
2017-01-17T15:32:59.816Z,0
2017-01-17T15:34:08.802Z,0
2017-01-17T15:35:17.788Z,0
2017-01-17T15:36:26.777Z,0
2017-01-17T15:37:35.761Z,0
2017-01-17T15:38:44.740Z,0
2017-01-17T15:39:53.716Z,0
2017-01-17T15:41:02.698Z,0
2017-01-17T15:42:11.681Z,0
2017-01-17T15:43:20.666Z,0
2017-01-17T15:44:29.676Z,0
2017-01-17T15:45:38.661Z,0
2017-01-17T15:46:47.638Z,0
2017-01-17T15:47:59.816Z,0
2017-01-17T15:49:16.732Z,0
2017-01-17T15:50:30.092Z,0
2017-01-17T15:51:42.627Z,0
2017-01-17T15:52:52.203Z,0
2017-01-17T15:54:01.875Z,0
2017-01-17T15:55:10.935Z,0
2017-01-17T15:56:21.002Z,0
2017-01-17T15:57:34.316Z,0
2017-01-17T15:58:49.575Z,0
2017-01-17T16:00:03.389Z,0
2017-01-17T16:01:21.697Z,0
2017-01-17T16:02:42.428Z,0
2017-01-17T16:04:03.607Z,0
2017-01-17T16:05:16.970Z,0
2017-01-17T16:06:26.353Z,0
2017-01-17T16:07:35.337Z,0
2017-01-17T16:08:44.318Z,0
2017-01-17T16:09:53.302Z,0
2017-01-17T16:11:02.283Z,0
2017-01-17T16:12:11.269Z,0
2017-01-17T16:13:20.253Z,0
2017-01-17T16:14:30.348Z,0
2017-01-17T16:15:40.079Z,0
2017-01-17T16:16:49.591Z,0
2017-01-17T16:17:59.082Z,0
2017-01-17T16:19:08.282Z,0
2017-01-17T16:20:17.290Z,0
2017-01-17T16:21:26.283Z,0
2017-01-17T16:22:35.274Z,0
2017-01-17T16:23:44.255Z,0
2017-01-17T16:24:53.235Z,0
2017-01-17T16:26:02.224Z,0
2017-01-17T16:27:11.255Z,0
2017-01-17T16:28:20.241Z,0
2017-01-17T16:29:29.228Z,0
2017-01-17T16:30:38.213Z,0
2017-01-17T16:31:47.205Z,0
2017-01-17T16:32:56.184Z,0
2017-01-17T16:34:05.169Z,0
2017-01-17T16:35:14.155Z,0
2017-01-17T16:36:23.139Z,0
2017-01-17T16:37:32.135Z,0
2017-01-17T16:38:41.117Z,0
2017-01-17T16:39:50.099Z,0
2017-01-17T16:40:59.081Z,0
2017-01-17T16:42:08.064Z,0
2017-01-17T16:43:17.049Z,0
2017-01-17T16:44:26.049Z,0
2017-01-17T16:45:35.032Z,0
2017-01-17T16:46:44.015Z,0
2017-01-17T16:47:53.222Z,0